Time;durP1;ratioP1;P1;durP2;ratioP2;P2;SDS_P1;SDS_P2;PMS_P1;PMS_P2;Temp;Humidity;BMP_temperature;BMP_pressure;BME280_temperature;BME280_humidity;BME280_pressure;Samples;Min_cycle;Max_cycle;Signal;HPM_P1;HPM_P2
2023/01/22 00:00:00;;;;;;;64.50;30.40;;;;;;;-4.48;100.00;103217.19;4897447;29;20068;-87
2023/01/22 00:02:35;;;;;;;69.78;32.92;;;;;;;-4.33;100.00;103237.06;4897485;29;20048;-89
2023/01/22 00:05:01;;;;;;;70.75;30.10;;;;;;;-4.58;100.00;103196.63;4897446;29;20064;-87
2023/01/22 00:07:44;;;;;;;60.58;29.60;;;;;;;-4.41;100.00;103236.81;4897334;29;20481;-89
2023/01/22 00:10:18;;;;;;;66.80;29.08;;;;;;;-4.18;100.00;103285.56;4896710;29;20592;-88
2023/01/22 00:12:59;;;;;;;63.90;30.25;;;;;;;-3.95;100.00;103325.94;4881537;29;20044;-85
2023/01/22 00:15:40;;;;;;;64.10;30.30;;;;;;;-4.98;100.00;103154.81;4896883;29;20068;-88
2023/01/22 00:18:06;;;;;;;66.65;31.48;;;;;;;-4.77;100.00;103197.59;4896926;29;20331;-89
2023/01/22 00:20:32;;;;;;;66.85;30.67;;;;;;;-4.53;100.00;103236.31;4896727;29;20037;-88
2023/01/22 00:23:00;;;;;;;69.82;31.58;;;;;;;-4.27;100.00;103282.72;4881507;29;20052;-89
2023/01/22 00:25:28;;;;;;;73.82;34.20;;;;;;;-4.79;100.00;103184.09;4896770;29;20041;-90
2023/01/22 00:27:54;;;;;;;76.60;33.15;;;;;;;-4.93;100.00;103156.69;4896807;29;20044;-90
2023/01/22 00:30:41;;;;;;;76.47;35.13;;;;;;;-4.21;100.00;103277.06;4931097;23;20059;-89
2023/01/22 00:33:19;;;;;;;74.40;30.52;;;;;;;-4.86;100.00;103175.41;4936946;29;20040;-90
2023/01/22 00:35:44;;;;;;;69.22;31.42;;;;;;;-4.37;100.00;103246.19;4936855;29;20444;-88
2023/01/22 00:38:09;;;;;;;70.28;32.88;;;;;;;-4.72;100.00;103184.38;4935535;29;20114;-89
2023/01/22 00:40:35;;;;;;;74.72;33.65;;;;;;;-5.02;100.00;103137.84;4936703;29;20028;-89
2023/01/22 00:43:09;;;;;;;68.05;33.22;;;;;;;-4.64;100.00;103197.25;4919420;29;20115;-90
2023/01/22 00:45:35;;;;;;;68.50;30.63;;;;;;;-5.09;100.00;103139.28;4936694;29;20161;-89
2023/01/22 00:48:06;;;;;;;64.88;31.67;;;;;;;-4.48;100.00;103239.91;4935170;29;20028;-90
2023/01/22 00:50:34;;;;;;;;;;;;;;;-3.72;100.00;103364.66;4936882;29;20024;-89
2023/01/22 00:53:02;;;;;;;68.80;32.30;;;;;;;-4.14;100.00;103289.06;4936346;29;20005;-90
2023/01/22 00:55:37;;;;;;;70.18;32.72;;;;;;;-5.09;100.00;103120.78;4935593;29;20123;-90
2023/01/22 00:58:15;;;;;;;67.28;32.17;;;;;;;-4.88;100.00;103156.88;4936364;29;20027;-90
2023/01/22 01:01:01;;;;;;;68.93;33.35;;;;;;;-5.01;100.00;103140.44;4935163;29;20082;-90
2023/01/22 01:03:36;;;;;;;68.97;34.75;;;;;;;-4.54;100.00;103214.44;4935981;29;20016;-90
2023/01/22 01:06:19;;;;;;;69.15;33.08;;;;;;;-5.17;100.00;103102.84;4936398;29;20369;-90
2023/01/22 01:08:55;;;;;;;;;;;;;;;;;;;;;
2023/01/22 01:11:32;;;;;;;;;;;;;;;;;;;;;
2023/01/22 01:14:01;;;;;;;65.45;32.35;;;;;;;-5.11;100.00;103104.72;4935898;29;20028;-89
2023/01/22 01:16:38;;;;;;;63.13;32.53;;;;;;;-4.18;100.00;103267.06;4935861;29;20035;-91
2023/01/22 01:19:08;;;;;;;68.85;31.83;;;;;;;-4.31;100.00;103247.25;4936232;29;20083;-89
2023/01/22 01:21:46;;;;;;;69.95;33.25;;;;;;;-4.53;100.00;103208.59;4936089;29;20036;-88
2023/01/22 01:24:14;;;;;;;68.50;30.92;;;;;;;-4.11;100.00;103284.16;4936155;29;20487;-88
2023/01/22 01:26:46;;;;;;;70.15;32.53;;;;;;;-5.07;100.00;103119.19;4935946;29;20031;-85
2023/01/22 01:29:20;;;;;;;;;;;;;;;-3.81;100.00;103339.94;4935491;29;20026;-85
2023/01/22 01:31:46;;;;;;;65.10;32.00;;;;;;;-3.82;100.00;103351.69;4934141;29;20010;-85
2023/01/22 01:34:21;;;;;;;68.18;31.52;;;;;;;-4.77;100.00;103183.34;4935974;29;20024;-85
2023/01/22 01:36:47;;;;;;;63.13;30.20;;;;;;;-4.76;100.00;103169.06;4935856;29;20043;-87
2023/01/22 01:39:12;;;;;;;67.60;31.58;;;;;;;-4.42;100.00;103217.44;4935619;29;20028;-86
2023/01/22 01:41:40;;;;;;;66.35;32.13;;;;;;;-5.06;100.00;103111.69;4935521;29;20479;-85
2023/01/22 01:44:16;;;;;;;63.65;31.75;;;;;;;-3.90;100.00;103310.16;4934536;29;20028;-85
2023/01/22 01:47:09;;;;;;;59.45;29.00;;;;;;;-4.36;100.00;103229.41;4935746;29;20024;-85
2023/01/22 01:49:47;;;;;;;63.30;30.42;;;;;;;-5.16;100.00;103086.94;4935701;29;20115;-85
2023/01/22 01:52:17;;;;;;;65.40;32.17;;;;;;;-5.00;100.00;103119.47;4934289;29;20048;-85
2023/01/22 01:55:05;;;;;;;64.82;32.20;;;;;;;-5.34;100.00;103061.91;4934943;29;20167;-85
2023/01/22 01:57:34;;;;;;;62.75;31.50;;;;;;;-5.25;100.00;103074.84;4935563;29;20028;-90
2023/01/22 02:00:09;;;;;;;64.22;31.35;;;;;;;-3.83;100.00;103309.59;4935155;29;20023;-87
2023/01/22 02:02:35;;;;;;;64.13;31.10;;;;;;;-5.17;100.00;103075.16;4933706;29;20408;-89
2023/01/22 02:05:21;;;;;;;59.60;28.65;;;;;;;-3.78;100.00;103294.59;4935625;29;20039;-88
2023/01/22 02:07:58;;;;;;;58.95;30.52;;;;;;;-4.25;100.00;103214.66;4933612;29;20036;-89
2023/01/22 02:10:29;;;;;;;61.30;31.27;;;;;;;-3.69;100.00;103289.03;4935632;29;20028;-91
2023/01/22 02:13:11;;;;;;;55.42;29.05;;;;;;;-4.67;100.00;103117.34;4935817;29;20023;-87
2023/01/22 02:15:41;;;;;;;58.58;28.48;;;;;;;-4.33;100.00;103179.06;4935321;29;20047;-89
2023/01/22 02:21:39;;;;;;;60.03;29.17;;;;;;;-3.67;100.00;103289.94;4935146;29;20078;-89
2023/01/22 02:24:18;;;;;;;;;;;;;;;;;;;;;
2023/01/22 02:26:44;;;;;;;53.08;26.42;;;;;;;-4.99;100.00;103067.44;4935231;29;20038;-91
2023/01/22 02:29:12;;;;;;;59.70;28.95;;;;;;;-4.13;100.00;103192.38;4935141;29;20038;-90
2023/01/22 02:31:46;;;;;;;58.13;31.05;;;;;;;-4.65;100.00;103108.16;4935025;29;20047;-90
2023/01/22 02:34:14;;;;;;;54.28;28.55;;;;;;;-4.41;100.00;103145.16;4938729;29;20081;-90
2023/01/22 02:36:51;;;;;;;59.55;30.23;;;;;;;-4.91;100.00;103066.06;4939086;29;20107;-88
2023/01/22 02:39:19;;;;;;;58.25;30.80;;;;;;;-4.94;100.00;103064.25;4946503;23;20261;-87
2023/01/22 02:41:45;;;;;;;57.40;31.23;;;;;;;-4.72;100.00;103100.31;4938878;29;20388;-89
2023/01/22 02:44:21;;;;;;;58.22;28.42;;;;;;;-4.18;100.00;103197.28;4939050;29;20031;-90
2023/01/22 02:50:09;;;;;;;55.50;28.98;;;;;;;-3.61;100.00;103296.06;4939086;29;20047;-85
2023/01/22 02:52:35;;;;;;;54.15;29.45;;;;;;;-4.10;100.00;103197.56;4938872;29;20028;-86
2023/01/22 02:55:09;;;;;;;53.30;27.80;;;;;;;-4.23;100.00;103152.50;4938372;29;20039;-85
2023/01/22 02:57:56;;;;;;;56.05;30.17;;;;;;;-3.30;100.00;103292.91;4938730;29;20034;-85
2023/01/22 03:00:21;;;;;;;58.03;30.27;;;;;;;-4.57;100.00;103062.19;4936607;29;20032;-85
2023/01/22 03:02:53;;;;;;;54.80;29.13;;;;;;;-4.01;100.00;103149.06;4938655;29;20079;-85
2023/01/22 03:05:29;;;;;;;56.33;30.60;;;;;;;-3.99;100.00;103147.47;4938553;29;20432;-85
2023/01/22 03:59:33;;;;;;;46.53;25.73;;;;;;;-3.08;100.00;103253.19;5527627;23;20052;-85
2023/01/22 04:08:00;;;;;;;44.80;24.98;;;;;;;-4.28;100.00;103075.81;4937735;29;20113;-87
2023/01/22 04:10:25;;;;;;;47.92;27.95;;;;;;;-4.60;100.00;103011.69;4936077;29;20031;-85
2023/01/22 04:13:29;;;;;;;45.03;24.92;;;;;;;-3.01;100.00;103271.13;4937260;29;20040;-85
2023/01/22 04:15:55;;;;;;;50.30;27.75;;;;;;;-3.49;100.00;103166.81;4937181;29;20493;-86
2023/01/22 04:18:36;;;;;;;;;;;;;;;;;;;;;
2023/01/22 04:23:55;;;;;;;46.60;25.88;;;;;;;-4.02;100.00;103047.28;4992439;23;20059;-84
2023/01/22 04:29:05;;;;;;;44.15;24.17;;;;;;;-4.02;100.00;103031.28;4918780;26;20056;-85
2023/01/22 04:31:30;;;;;;;51.20;26.33;;;;;;;-4.13;100.00;103008.19;4991395;23;20107;-86
2023/01/22 04:33:56;;;;;;;42.05;24.67;;;;;;;-2.68;100.00;103248.56;4936489;29;20051;-85
2023/01/22 04:36:27;;;;;;;43.92;25.17;;;;;;;-3.36;100.00;103132.69;4936761;29;20090;-85
2023/01/22 04:39:04;;;;;;;40.95;23.48;;;;;;;-3.98;100.00;103015.44;4936855;29;20024;-86
2023/01/22 04:41:30;;;;;;;43.20;23.00;;;;;;;-3.52;100.00;103081.72;4937047;29;20483;-85
2023/01/22 04:43:55;;;;;;;42.17;22.92;;;;;;;-2.48;100.00;103254.22;4935514;29;20155;-86
2023/01/22 04:46:28;;;;;;;43.90;22.33;;;;;;;-3.91;100.00;103013.16;4936748;29;20023;-85
2023/01/22 04:48:54;;;;;;;39.75;23.58;;;;;;;-3.71;100.00;103038.16;4935024;29;20031;-86
2023/01/22 04:51:34;;;;;;;40.78;22.70;;;;;;;-3.85;100.00;103005.75;4935248;29;20028;-86
2023/01/22 04:53:59;;;;;;;38.38;21.17;;;;;;;-2.49;100.00;103242.38;4936650;29;20024;-84
2023/01/22 04:56:33;;;;;;;37.30;20.75;;;;;;;-3.89;100.00;103009.00;4936281;29;20563;-86
2023/01/22 04:59:08;;;;;;;33.25;20.20;;;;;;;-3.99;100.00;102986.81;4936298;29;20032;-86
2023/01/22 05:01:36;;;;;;;38.35;21.67;;;;;;;-3.42;100.00;103089.56;4934989;29;20112;-86
2023/01/22 05:04:14;;;;;;;34.45;21.38;;;;;;;-3.45;100.00;103092.84;4936106;29;20451;-86
2023/01/22 05:07:01;;;;;;;36.28;20.48;;;;;;;-2.48;100.00;103248.31;4935094;29;20028;-86
2023/01/22 05:09:26;;;;;;;36.78;21.88;;;;;;;-3.44;100.00;103098.75;4936068;29;20083;-85
2023/01/22 05:12:02;;;;;;;39.75;22.48;;;;;;;-2.67;100.00;103229.19;4934938;29;20043;-86
2023/01/22 05:14:33;;;;;;;36.20;21.85;;;;;;;-3.20;100.00;103139.94;4943237;23;20063;-85
2023/01/22 05:16:59;;;;;;;;;;;;;;;-2.53;100.00;103244.78;4936390;29;20079;-87
2023/01/22 05:19:30;;;;;;;36.70;20.23;;;;;;;-3.89;100.00;103023.28;4968170;23;19946;-87
2023/01/22 05:21:59;;;;;;;;;;;;;;;-2.61;100.00;103250.47;4935179;29;20024;-87
2023/01/22 05:24:44;;;;;;;34.42;19.02;;;;;;;-3.92;100.00;103033.28;4934964;29;19938;-89
2023/01/22 05:27:22;;;;;;;36.47;21.58;;;;;;;-3.06;100.00;103184.16;4936108;29;20030;-90
2023/01/22 05:29:47;;;;;;;36.40;21.52;;;;;;;-3.66;100.00;103079.53;4935956;29;20433;-90
2023/01/22 05:32:18;;;;;;;32.80;19.88;;;;;;;-3.33;100.00;103137.84;4935775;29;20155;-91
2023/01/22 05:38:04;;;;;;;38.15;22.75;;;;;;;-3.23;100.00;103142.38;4936090;29;20090;-90
2023/01/22 05:40:30;;;;;;;37.47;21.45;;;;;;;-3.25;100.00;103127.16;4935865;29;20075;-90
2023/01/22 05:46:06;;;;;;;37.25;21.17;;;;;;;-3.18;100.00;103123.16;5190359;23;20055;-90
2023/01/22 05:48:32;;;;;;;36.22;19.55;;;;;;;-2.54;100.00;103233.81;4934222;29;20024;-89
2023/01/22 05:51:03;;;;;;;36.30;21.48;;;;;;;-3.59;100.00;103057.06;4934301;29;20035;-91
2023/01/22 05:53:40;;;;;;;35.92;21.10;;;;;;;-2.24;100.00;103278.53;4935530;29;20487;-90
2023/01/22 05:56:06;;;;;;;33.22;20.02;;;;;;;-3.55;100.00;103066.44;4934440;29;20023;-91
2023/01/22 05:58:43;;;;;;;35.22;20.08;;;;;;;-3.43;100.00;103087.84;5264615;23;20070;-90
2023/01/22 06:01:18;;;;;;;36.15;20.52;;;;;;;-2.20;100.00;103287.94;4935544;29;20462;-89
2023/01/22 06:03:43;;;;;;;38.20;21.60;;;;;;;-3.60;100.00;103057.88;4934083;29;20035;-90
2023/01/22 06:06:58;;;;;;;36.13;22.80;;;;;;;-2.19;100.00;103287.13;4935250;29;20035;-88
2023/01/22 06:09:24;;;;;;;34.15;19.98;;;;;;;-2.68;100.00;103197.97;4935502;29;20095;-90
2023/01/22 06:11:49;;;;;;;38.13;20.92;;;;;;;-3.11;100.00;103124.22;4934024;29;20444;-89
2023/01/22 06:14:40;;;;;;;34.30;19.98;;;;;;;-2.18;100.00;103282.09;4935611;29;20040;-91
2023/01/22 06:17:08;;;;;;;33.10;19.88;;;;;;;-3.48;100.00;103057.41;4941716;23;20138;-90
2023/01/22 06:19:55;;;;;;;36.97;21.48;;;;;;;-2.12;100.00;103279.75;4934043;29;20043;-90
2023/01/22 06:22:24;;;;;;;36.30;19.67;;;;;;;-3.04;100.00;103121.91;4934063;29;20032;-89
2023/01/22 06:24:58;;;;;;;32.33;18.60;;;;;;;-2.90;100.00;103148.44;4934000;29;20027;-89
2023/01/22 06:27:26;;;;;;;34.20;20.90;;;;;;;-3.52;100.00;103055.59;4942570;23;20047;-89
2023/01/22 06:29:51;;;;;;;36.65;19.27;;;;;;;-2.13;100.00;103284.78;4935442;29;20036;-90
2023/01/22 06:32:19;;;;;;;35.85;20.45;;;;;;;-2.42;100.00;103235.84;4933919;29;20034;-90
2023/01/22 06:35:08;;;;;;;34.47;19.35;;;;;;;-2.40;100.00;103224.94;4935885;29;20499;-87
2023/01/22 06:37:46;;;;;;;36.20;21.08;;;;;;;-2.56;100.00;103201.69;4895222;29;20040;-87
2023/01/22 06:40:12;;;;;;;36.10;20.85;;;;;;;-2.63;100.00;103188.00;4879462;29;20047;-86
2023/01/22 06:43:11;;;;;;;34.97;20.65;;;;;;;-2.07;100.00;103274.81;4983049;23;20404;-87
2023/01/22 06:49:20;;;;;;;35.40;20.48;;;;;;;-2.07;100.00;103275.66;5205963;23;20067;-88
2023/01/22 06:51:45;;;;;;;36.58;20.05;;;;;;;-2.48;100.00;103228.06;4916242;29;20062;-88
2023/01/22 06:54:30;;;;;;;36.95;21.80;;;;;;;-2.40;100.00;103230.00;4915679;29;20477;-88
2023/01/22 06:57:07;;;;;;;34.80;19.48;;;;;;;-3.39;100.00;103069.44;4899132;29;20079;-87
2023/01/22 06:59:33;;;;;;;36.95;21.15;;;;;;;-2.51;100.00;103205.22;4976781;23;20054;-86
2023/01/22 07:02:15;;;;;;;34.70;19.90;;;;;;;-3.07;100.00;103110.84;4934162;29;20031;-88
2023/01/22 07:04:40;;;;;;;33.80;19.92;;;;;;;-3.26;100.00;103076.56;4933637;29;20083;-91
2023/01/22 07:07:09;;;;;;;33.88;19.23;;;;;;;-2.82;100.00;103151.22;4934900;29;20027;-87
2023/01/22 07:09:57;;;;;;;34.13;20.80;;;;;;;-1.98;100.00;103290.25;4934998;29;20027;-89
2023/01/22 07:12:25;;;;;;;33.67;18.75;;;;;;;-2.82;100.00;103160.47;4933385;29;20032;-90
2023/01/22 07:15:06;;;;;;;33.75;19.73;;;;;;;-2.37;100.00;103235.16;4934939;29;20495;-90
2023/01/22 07:17:33;;;;;;;34.80;21.10;;;;;;;-2.38;100.00;103228.38;4933480;29;20024;-88
2023/01/22 07:20:01;;;;;;;34.90;20.20;;;;;;;-2.66;100.00;103178.63;4937917;29;20028;-87
2023/01/22 07:22:32;;;;;;;32.88;19.55;;;;;;;-1.97;100.00;103283.50;4938002;29;20039;-88
2023/01/22 07:25:13;;;;;;;;;;;;;;;-1.94;100.00;103286.16;4938602;29;20493;-88
2023/01/22 07:27:41;;;;;;;34.53;19.05;;;;;;;-2.76;100.00;103158.97;4981801;23;19914;-87
2023/01/22 07:30:08;;;;;;;33.65;19.35;;;;;;;-2.03;100.00;103282.53;5062949;23;20065;-89
2023/01/22 07:33:11;;;;;;;30.63;18.88;;;;;;;-3.26;100.00;103079.09;4936657;29;20080;-88
2023/01/22 07:35:43;;;;;;;32.20;18.30;;;;;;;-3.03;100.00;103111.00;4936798;29;20483;-88
2023/01/22 07:38:08;;;;;;;;;;;;;;;-1.89;100.00;103287.13;4938414;29;20024;-93
2023/01/22 07:40:46;;;;;;;28.55;16.25;;;;;;;-2.59;100.00;103174.63;4937135;29;19922;-94
2023/01/22 07:43:20;;;;;;;34.00;18.77;;;;;;;-3.15;100.00;103077.75;4938631;29;20047;-91
2023/01/22 07:45:48;;;;;;;32.05;18.88;;;;;;;-3.16;100.00;103086.16;4938874;29;20032;-90
2023/01/22 07:48:16;;;;;;;32.75;19.52;;;;;;;-2.67;100.00;103171.88;4931663;29;20364;-90
2023/01/22 07:58:58;;;;;;;25.35;15.48;;;;;;;-2.24;100.00;103226.25;4934487;29;20047;-87
2023/01/22 08:01:33;;;;;;;27.63;16.23;;;;;;;-3.25;100.00;103058.94;4942274;23;20409;-90
2023/01/22 08:04:10;;;;;;;26.60;16.55;;;;;;;-1.77;100.00;103311.16;4936158;29;20051;-87
2023/01/22 08:06:54;;;;;;;27.13;17.50;;;;;;;-2.60;100.00;103152.69;4937249;29;20028;-86
2023/01/22 08:09:23;;;;;;;29.17;17.73;;;;;;;-3.26;100.00;103039.53;4937918;29;20032;-88
2023/01/22 08:11:49;;;;;;;26.50;16.98;;;;;;;-2.67;100.00;103139.00;4937659;29;20126;-86
2023/01/22 08:14:14;;;;;;;29.45;17.77;;;;;;;-2.57;100.00;103144.31;4936184;29;20059;-89
2023/01/22 08:16:40;;;;;;;27.42;16.15;;;;;;;-1.76;100.00;103274.00;4937426;29;20027;-87
2023/01/22 08:19:30;;;;;;;28.15;16.55;;;;;;;-1.52;100.00;103299.97;4937169;29;20024;-87
2023/01/22 08:22:11;;;;;;;27.20;15.27;;;;;;;-2.04;100.00;103216.69;4935952;29;20392;-91
2023/01/22 08:48:09;;;;;;;22.80;14.32;;;;;;;-1.39;100.00;103318.91;5000739;23;20055;-88
2023/01/22 08:50:44;;;;;;;25.05;15.10;;;;;;;-1.85;100.00;103238.31;4959322;28;20039;-90
2023/01/22 08:53:09;;;;;;;24.85;14.27;;;;;;;-2.44;100.00;103139.66;4954918;29;20027;-88
2023/01/22 08:56:38;;;;;;;24.25;15.45;;;;;;;-1.32;100.00;103319.94;4955809;29;20538;-91
2023/01/22 08:59:14;;;;;;;22.45;12.82;;;;;;;-1.78;100.00;103253.69;5141655;23;20048;-90
2023/01/22 09:01:49;;;;;;;23.00;14.63;;;;;;;-2.61;100.00;103113.03;4936471;29;20118;-89
2023/01/22 09:07:39;;;;;;;25.70;14.38;;;;;;;-1.34;100.00;103321.56;4936212;29;20499;-88
2023/01/22 09:10:18;;;;;;;22.83;14.68;;;;;;;-1.64;100.00;103266.72;5307488;23;20117;-88
2023/01/22 09:15:57;;;;;;;25.98;15.55;;;;;;;-1.20;100.00;103322.78;5190428;23;20059;31
2023/01/22 09:24:28;;;;;;;25.95;13.93;;;;;;;-1.32;100.00;103317.38;5109478;23;20471;-87
2023/01/22 09:27:21;;;;;;;23.40;14.60;;;;;;;-1.21;100.00;103328.66;4942681;23;20131;-88
2023/01/22 09:29:53;;;;;;;23.15;14.05;;;;;;;-2.41;100.00;103134.69;4935733;29;20059;-88
2023/01/22 09:32:42;;;;;;;;;;;;;;;-1.20;100.00;103330.38;4937092;29;20032;-88
2023/01/22 09:38:17;;;;;;;24.50;14.60;;;;;;;-1.17;100.00;103331.34;4943840;23;20070;-89
2023/01/22 09:41:35;;;;;;;26.75;14.30;;;;;;;-1.12;100.00;103333.97;4934300;29;20109;-89
2023/01/22 09:44:19;;;;;;;23.13;14.13;;;;;;;-2.14;100.00;103159.88;4934536;29;20036;-88
2023/01/22 09:47:22;;;;;;;24.30;14.82;;;;;;;-0.96;100.00;103343.69;4934417;29;20036;-88
2023/01/22 09:49:56;;;;;;;23.45;15.43;;;;;;;-0.87;100.00;103336.31;4940588;23;20027;-88
2023/01/22 09:52:47;;;;;;;22.70;14.32;;;;;;;-1.27;100.00;103260.94;4934491;29;20410;-87
2023/01/22 09:55:24;;;;;;;21.98;13.93;;;;;;;-1.37;100.00;103213.38;4935018;29;20036;-89
2023/01/22 09:57:55;;;;;;;24.75;14.57;;;;;;;-1.82;100.00;103124.41;4935910;29;20035;-89
2023/01/22 10:00:43;;;;;;;24.95;15.35;;;;;;;-1.80;100.00;103118.56;4935338;29;20024;-91
2023/01/22 10:03:31;;;;;;;20.90;13.40;;;;;;;-1.74;100.00;103128.84;4942608;23;20122;-88
2023/01/22 10:06:12;;;;;;;21.05;13.70;;;;;;;-1.35;100.00;103209.19;4935853;29;20032;-88
2023/01/22 10:09:26;;;;;;;21.42;13.82;;;;;;;-0.87;100.00;103290.66;4935688;29;20042;-89
2023/01/22 10:11:56;;;;;;;22.10;14.13;;;;;;;-1.16;100.00;103258.66;4942389;23;20028;-88
2023/01/22 10:14:26;;;;;;;20.50;12.65;;;;;;;-1.99;100.00;103125.66;4942301;23;20612;-88
2023/01/22 10:17:14;;;;;;;21.67;13.95;;;;;;;-1.16;100.00;103281.47;4943985;23;20052;-83
2023/01/22 10:22:31;;;;;;;20.95;13.70;;;;;;;-1.28;100.00;103253.28;4935423;29;20082;-87
2023/01/22 10:24:57;;;;;;;22.45;13.75;;;;;;;-0.86;100.00;103329.56;5106575;23;20423;-84
2023/01/22 10:27:35;;;;;;;20.08;14.32;;;;;;;-1.14;100.00;103284.06;4918449;29;20028;-87
2023/01/22 10:30:20;;;;;;;21.13;12.95;;;;;;;-0.69;100.00;103350.25;4963324;23;20055;-86
2023/01/22 10:33:21;;;;;;;19.58;12.80;;;;;;;-0.75;100.00;103343.34;4934885;29;20192;-85
2023/01/22 10:35:52;;;;;;;19.38;13.35;;;;;;;-1.03;100.00;103298.72;4935174;29;20039;-87
2023/01/22 10:38:30;;;;;;;19.80;13.15;;;;;;;-2.19;100.00;103095.63;4934666;29;20039;-86
2023/01/22 10:41:00;;;;;;;22.02;14.60;;;;;;;-1.19;100.00;103266.19;4934993;29;20118;-88
2023/01/22 10:46:19;;;;;;;19.65;13.18;;;;;;;-0.69;100.00;103345.16;4998774;23;20060;-87
2023/01/22 10:48:57;;;;;;;20.88;13.20;;;;;;;-0.96;100.00;103303.13;4935046;29;20036;-87
2023/01/22 10:51:27;;;;;;;21.30;14.05;;;;;;;-0.66;100.00;103356.28;4934160;29;20028;-88
2023/01/22 10:53:55;;;;;;;20.17;12.85;;;;;;;-0.78;100.00;103332.28;4935053;29;20144;-87
2023/01/22 10:56:29;;;;;;;22.02;13.35;;;;;;;-0.66;100.00;103355.41;4938785;29;20035;-86
2023/01/22 10:58:55;;;;;;;19.70;13.05;;;;;;;-0.78;100.00;103334.81;4938731;29;20034;-86
2023/01/22 11:01:35;;;;;;;21.17;12.73;;;;;;;-0.81;100.00;103327.97;4938776;29;20055;-85
2023/01/22 11:04:19;;;;;;;19.52;13.02;;;;;;;-0.79;100.00;103322.94;4937216;29;20476;-86
2023/01/22 11:06:52;;;;;;;20.88;13.85;;;;;;;-0.70;100.00;103344.31;4938476;29;20036;-83
2023/01/22 11:09:30;;;;;;;21.10;13.07;;;;;;;-0.69;100.00;103340.09;4936991;29;20377;-86
2023/01/22 11:12:03;;;;;;;23.45;13.25;;;;;;;-0.61;100.00;103339.47;4938433;29;20068;-87
2023/01/22 11:14:33;;;;;;;23.27;14.43;;;;;;;-0.58;100.00;103326.00;4938302;29;20024;-86
2023/01/22 11:17:23;;;;;;;20.98;13.70;;;;;;;-0.46;100.00;103338.13;4938346;29;20102;-87
2023/01/22 11:19:56;;;;;;;22.33;14.32;;;;;;;-0.44;100.00;103331.38;4937141;29;20040;-84
2023/01/22 11:22:32;;;;;;;20.63;12.13;;;;;;;-0.51;100.00;103317.69;4938299;29;20028;-85
2023/01/22 11:24:57;;;;;;;20.67;13.18;;;;;;;-0.46;100.00;103327.97;4937856;29;20028;-86
2023/01/22 11:27:43;;;;;;;18.05;12.38;;;;;;;-0.37;100.00;103323.09;4936916;29;20031;-80
2023/01/22 11:30:59;;;;;;;20.60;13.30;;;;;;;-0.32;100.00;103324.91;4938631;29;20388;-89
2023/01/22 11:33:33;;;;;;;19.70;12.55;;;;;;;-0.28;100.00;103324.97;4899649;29;20052;-82
2023/01/22 11:36:13;;;;;;;19.17;12.75;;;;;;;-0.37;100.00;103292.63;4883871;29;20065;-89
2023/01/22 11:42:43;;;;;;;20.70;12.20;;;;;;;-0.53;100.00;103224.59;4954946;29;20457;-88
2023/01/22 11:45:33;;;;;;;20.63;13.57;;;;;;;0.02;100.00;103305.31;4957290;29;20050;-88
2023/01/22 11:51:21;;;;;;;19.13;12.65;;;;;;;0.27;100.00;103304.09;5377311;23;20427;-89
2023/01/22 11:53:57;;;;;;;;;;;;;;;0.37;100.00;103302.59;4901431;29;20040;-91
2023/01/22 11:56:43;;;;;;;18.77;12.70;;;;;;;-0.73;100.00;103117.59;4883911;29;19991;-84
2023/01/22 11:59:59;;;;;;;18.33;12.57;;;;;;;0.40;100.00;103301.00;4881590;29;20064;-90
2023/01/22 12:02:27;;;;;;;18.83;12.15;;;;;;;0.41;100.00;103291.69;4918069;23;20052;-83
2023/01/22 12:05:49;;;;;;;19.70;12.90;;;;;;;0.48;100.00;103290.94;4935379;29;20179;-87
2023/01/22 12:08:47;;;;;;;19.92;12.68;;;;;;;-0.03;100.00;103218.84;4939162;29;20071;-88
2023/01/22 12:11:19;;;;;;;18.20;11.57;;;;;;;0.33;100.00;103293.22;4937836;29;20038;-88
2023/01/22 12:13:57;;;;;;;19.15;12.05;;;;;;;0.22;100.00;103293.00;4937574;29;20054;-84
2023/01/22 12:16:31;;;;;;;18.40;12.38;;;;;;;0.08;100.00;103291.84;4937770;29;20027;-82
2023/01/22 12:19:27;;;;;;;20.70;12.52;;;;;;;-0.39;100.00;103218.13;4937710;29;20032;-85
2023/01/22 12:21:55;;;;;;;19.50;12.73;;;;;;;-0.46;100.00;103193.44;4938963;29;20114;-85
2023/01/22 12:28:03;;;;;;;18.05;12.57;;;;;;;0.25;100.00;103295.59;4937490;29;20486;-90
2023/01/22 12:31:09;;;;;;;20.23;12.32;;;;;;;0.27;100.00;103287.16;4938061;29;20392;-86
2023/01/22 12:43:06;;;;;;;19.23;12.20;;;;;;;-0.60;100.00;103142.38;4938637;29;20043;-88
2023/01/22 12:45:38;;;;;;;21.55;13.07;;;;;;;0.33;100.00;103288.97;4935724;29;20507;-83
2023/01/22 12:48:24;;;;;;;19.27;12.63;;;;;;;0.36;100.00;103290.72;4936761;29;20035;-84
2023/01/22 12:51:01;;;;;;;19.35;12.18;;;;;;;0.28;100.00;103308.34;5026291;23;20006;-85
2023/01/22 12:53:42;;;;;;;19.30;12.73;;;;;;;-0.35;100.00;103215.69;4936554;29;20039;-87
2023/01/22 12:56:10;;;;;;;19.08;12.65;;;;;;;-0.35;100.00;103225.81;4937072;29;20110;-86
2023/01/22 12:58:40;;;;;;;20.15;13.25;;;;;;;-0.35;100.00;103235.97;4937031;29;20388;-86
2023/01/22 13:01:31;;;;;;;22.13;13.27;;;;;;;-0.02;100.00;103304.38;4937599;29;20079;-93
2023/01/22 13:04:15;;;;;;;21.20;13.32;;;;;;;-1.46;100.00;103071.25;4936582;29;20087;-86
2023/01/22 13:06:42;;;;;;;20.30;13.25;;;;;;;-1.34;100.00;103098.53;4936649;29;20518;-89
2023/01/22 13:10:30;;;;;;;20.40;13.27;;;;;;;-0.13;100.00;103295.69;4937887;29;20387;-87
2023/01/22 13:13:00;;;;;;;19.35;12.45;;;;;;;-0.55;100.00;103233.84;4932365;29;20507;-86
2023/01/22 13:15:38;;;;;;;22.05;12.82;;;;;;;-0.07;100.00;103317.81;4896599;29;20044;-84
2023/01/22 13:18:23;;;;;;;18.77;13.10;;;;;;;-0.83;100.00;103186.72;4880557;29;20036;-83
2023/01/22 13:21:16;;;;;;;21.52;13.07;;;;;;;-1.24;100.00;103113.13;4880439;29;20044;-83
2023/01/22 13:23:48;;;;;;;21.10;13.90;;;;;;;0.00;100.00;103309.50;4889465;29;20049;-82
2023/01/22 13:26:34;;;;;;;19.27;13.43;;;;;;;-0.83;100.00;103174.03;4895806;29;20520;-84
2023/01/22 13:29:26;;;;;;;18.98;12.57;;;;;;;-0.03;100.00;103306.88;4896322;29;20540;-88
2023/01/22 13:32:22;;;;;;;22.25;13.63;;;;;;;-0.84;100.00;103172.31;4880668;28;20033;-88
2023/01/22 13:35:08;;;;;;;20.15;13.25;;;;;;;-1.03;100.00;103138.09;4896189;29;20041;-85
2023/01/22 13:37:42;;;;;;;23.50;14.05;;;;;;;-0.07;100.00;103308.53;4896036;29;20036;-87
2023/01/22 13:40:22;;;;;;;19.00;12.90;;;;;;;-1.38;100.00;103094.19;4895951;29;20055;-85
2023/01/22 13:42:47;;;;;;;23.08;14.38;;;;;;;-0.15;100.00;103310.03;4895545;29;20040;-80
2023/01/22 13:45:28;;;;;;;20.42;13.85;;;;;;;-0.16;100.00;103307.47;4895854;29;20396;-82
2023/01/22 13:47:59;;;;;;;23.60;14.57;;;;;;;-0.16;100.00;103310.00;4895995;29;20024;-81
2023/01/22 13:50:28;;;;;;;20.80;13.32;;;;;;;-0.21;100.00;103309.03;4895765;29;20031;-82
2023/01/22 13:52:59;;;;;;;20.70;13.18;;;;;;;-0.16;100.00;103315.09;4927533;29;20114;-81
2023/01/22 13:55:26;;;;;;;;;;;;;;;-0.10;100.00;103316.09;4936074;29;20122;-83
2023/01/22 13:57:53;;;;;;;22.27;13.60;;;;;;;-0.15;100.00;103309.19;4935529;29;19944;-82
2023/01/22 14:00:30;;;;;;;20.75;13.93;;;;;;;-0.13;100.00;103313.47;4935554;29;20519;-82
2023/01/22 14:02:57;;;;;;;22.02;13.77;;;;;;;-0.07;100.00;103307.66;4935406;29;20491;-82
2023/01/22 14:05:25;;;;;;;25.15;14.40;;;;;;;-0.04;100.00;103316.19;4935874;29;20416;-84
2023/01/22 14:08:03;;;;;;;22.30;14.15;;;;;;;-0.03;100.00;103319.59;4935553;29;20383;-82
2023/01/22 14:10:29;;;;;;;20.08;13.00;;;;;;;-0.01;100.00;103328.09;4935374;29;20059;-81
2023/01/22 14:13:03;;;;;;;24.63;14.15;;;;;;;-0.10;100.00;103308.47;4935566;29;20491;-80
2023/01/22 14:15:29;;;;;;;22.38;13.75;;;;;;;-0.03;100.00;103329.75;4935329;29;20083;-80
2023/01/22 14:18:15;;;;;;;23.45;15.10;;;;;;;-0.02;100.00;103324.69;4935542;29;20035;-79
2023/01/22 14:20:43;;;;;;;20.90;13.57;;;;;;;-0.24;100.00;103283.59;4934167;29;20034;-81